createdAt,value
2023-01-31T00:01:59.143Z,101449.31
2023-01-31T00:04:27.564Z,101454.13
2023-01-31T00:06:55.879Z,101463.09
2023-01-31T00:09:24.256Z,101471.84
2023-01-31T00:11:52.738Z,101466.75
2023-01-31T00:14:21.269Z,101473.38
2023-01-31T00:16:49.101Z,101478.50
2023-01-31T00:19:16.750Z,101474.47
2023-01-31T00:21:45.466Z,101478.69
2023-01-31T00:24:36.044Z,101476.53
2023-01-31T00:27:03.961Z,101482.25
2023-01-31T00:29:31.684Z,101482.25
2023-01-31T00:31:59.411Z,101477.03
2023-01-31T00:34:27.685Z,101482.47
2023-01-31T00:36:55.736Z,101490.44
2023-01-31T00:39:24.317Z,101481.97
2023-01-31T00:41:52.246Z,101488.03
2023-01-31T00:44:19.876Z,101475.00
2023-01-31T00:46:48.209Z,101480.31
2023-01-31T00:49:16.257Z,101488.06
2023-01-31T00:51:44.903Z,101496.53
2023-01-31T00:54:12.533Z,101507.97
2023-01-31T00:56:40.802Z,101500.88
2023-01-31T00:59:08.784Z,101510.38
2023-01-31T01:01:37.494Z,101509.22
2023-01-31T01:04:06.062Z,101502.34
2023-01-31T01:06:34.141Z,101508.41
2023-01-31T01:09:02.199Z,101515.00
2023-01-31T01:11:31.226Z,101504.75
2023-01-31T01:13:59.094Z,101512.22
2023-01-31T01:16:59.173Z,101514.25
2023-01-31T01:19:26.728Z,101511.44
2023-01-31T01:21:56.001Z,101522.34
2023-01-31T01:24:25.016Z,101532.22
2023-01-31T01:26:53.611Z,101528.44
2023-01-31T01:29:21.636Z,101527.56
2023-01-31T01:31:50.021Z,101532.72
2023-01-31T01:34:18.390Z,101539.97
2023-01-31T01:36:48.111Z,101543.16
2023-01-31T01:39:16.593Z,101532.72
2023-01-31T01:41:45.137Z,101538.28
2023-01-31T01:44:43.921Z,101546.66
2023-01-31T01:47:36.793Z,101537.91
2023-01-31T01:50:24.124Z,101550.94
2023-01-31T01:52:51.060Z,101548.69
2023-01-31T01:55:40.391Z,101547.16
2023-01-31T01:58:16.823Z,101551.84
2023-01-31T02:00:59.434Z,101546.28
2023-01-31T02:03:27.309Z,101555.13
2023-01-31T02:06:00.170Z,101560.31
2023-01-31T02:08:29.200Z,101553.22
2023-01-31T02:10:59.472Z,101554.97
2023-01-31T02:13:27.653Z,101550.94
2023-01-31T02:15:55.629Z,101548.41
2023-01-31T02:18:22.860Z,101543.63
2023-01-31T02:20:58.736Z,101552.59
2023-01-31T02:23:47.330Z,101557.50
2023-01-31T02:26:28.349Z,101551.81
2023-01-31T02:29:19.372Z,101547.97
2023-01-31T02:31:59.290Z,101549.81
2023-01-31T02:35:10.628Z,101569.28
2023-01-31T02:38:19.516Z,101563.94
2023-01-31T02:41:27.852Z,101567.59
2023-01-31T02:44:17.702Z,101570.78
2023-01-31T02:47:00.015Z,101570.56
2023-01-31T02:49:36.906Z,101567.81
2023-01-31T02:52:26.090Z,101566.19
2023-01-31T02:55:17.007Z,101573.66
2023-01-31T02:57:44.337Z,101585.28
2023-01-31T03:00:13.287Z,101583.03
2023-01-31T03:02:41.467Z,101578.09
2023-01-31T03:05:12.540Z,101586.59
2023-01-31T03:07:39.838Z,101591.72
2023-01-31T03:10:09.835Z,101589.69
2023-01-31T03:12:48.212Z,101582.09
2023-01-31T03:16:03.037Z,101584.50
2023-01-31T03:19:02.330Z,101601.84
2023-01-31T03:21:40.380Z,101595.41
2023-01-31T03:24:26.539Z,101589.63
2023-01-31T03:26:56.008Z,101588.84
2023-01-31T03:29:24.540Z,101599.75
2023-01-31T03:31:59.035Z,101596.53
2023-01-31T03:34:26.513Z,101600.19
2023-01-31T03:37:02.050Z,101602.97
2023-01-31T03:39:32.603Z,101604.13
2023-01-31T03:42:13.529Z,101604.03
2023-01-31T03:45:05.824Z,101605.38
2023-01-31T03:47:40.533Z,101593.09
2023-01-31T03:50:16.527Z,101587.41
2023-01-31T03:52:47.466Z,101592.47
2023-01-31T03:55:17.022Z,101590.44
2023-01-31T03:57:44.353Z,101593.84
2023-01-31T04:00:18.313Z,101594.88
2023-01-31T04:02:46.920Z,101595.94
2023-01-31T04:05:15.999Z,101597.56
2023-01-31T04:07:44.008Z,101593.31
2023-01-31T04:10:16.705Z,101594.75
2023-01-31T04:12:49.969Z,101599.94
2023-01-31T04:15:18.022Z,101591.72
2023-01-31T04:17:45.970Z,101597.41
2023-01-31T04:20:13.451Z,101602.28
2023-01-31T04:22:41.774Z,101601.34
2023-01-31T04:25:11.343Z,101590.63
2023-01-31T04:27:39.352Z,101597.31
2023-01-31T04:30:10.768Z,101596.94
2023-01-31T04:32:39.132Z,101605.00
2023-01-31T04:35:11.476Z,101609.44
2023-01-31T04:37:39.763Z,101609.56
2023-01-31T04:40:10.875Z,101611.00
2023-01-31T04:42:38.995Z,101612.16
2023-01-31T04:45:09.249Z,101616.06
2023-01-31T04:47:37.482Z,101612.94
2023-01-31T04:50:07.658Z,101612.94
2023-01-31T04:52:36.532Z,101615.69
2023-01-31T04:55:04.569Z,101621.94
2023-01-31T04:57:32.826Z,101618.50
2023-01-31T05:00:00.858Z,101618.09
2023-01-31T05:02:28.972Z,101616.72
2023-01-31T05:04:56.720Z,101610.47
2023-01-31T05:07:24.931Z,101613.09
2023-01-31T05:09:53.438Z,101605.97
2023-01-31T05:12:21.515Z,101609.34
2023-01-31T05:14:49.710Z,101619.31
2023-01-31T05:17:17.192Z,101622.75
2023-01-31T05:19:52.967Z,101615.03
2023-01-31T05:22:22.750Z,101619.59
2023-01-31T05:24:50.508Z,101619.31
2023-01-31T05:27:18.445Z,101625.78
2023-01-31T05:29:46.259Z,101623.75
2023-01-31T05:32:13.516Z,101621.06
2023-01-31T05:34:41.837Z,101615.13
2023-01-31T05:37:10.999Z,101621.06
2023-01-31T05:39:39.230Z,101619.44
2023-01-31T05:42:07.292Z,101602.97
2023-01-31T05:44:35.338Z,101618.91
2023-01-31T05:47:03.943Z,101626.16
2023-01-31T05:49:33.766Z,101626.66
2023-01-31T05:52:02.097Z,101634.03
2023-01-31T05:54:29.906Z,101641.63
2023-01-31T05:56:58.360Z,101649.91
2023-01-31T05:59:26.740Z,101645.16
2023-01-31T06:01:54.634Z,101648.94
2023-01-31T06:04:22.979Z,101651.94
2023-01-31T06:06:51.005Z,101657.34
2023-01-31T06:09:18.918Z,101653.63
2023-01-31T06:11:47.067Z,101655.63
2023-01-31T06:14:14.975Z,101653.56
2023-01-31T06:16:42.874Z,101663.22
2023-01-31T06:19:11.071Z,101675.84
2023-01-31T06:21:38.749Z,101680.41
2023-01-31T06:24:09.363Z,101683.47
2023-01-31T06:26:37.955Z,101691.66
2023-01-31T06:29:05.808Z,101688.47
2023-01-31T06:31:34.731Z,101683.25
2023-01-31T06:34:03.596Z,101689.13
2023-01-31T06:36:34.498Z,101698.31
2023-01-31T06:39:06.780Z,101707.47
2023-01-31T06:41:34.792Z,101713.81
2023-01-31T06:44:02.747Z,101719.91
2023-01-31T06:46:30.638Z,101718.41
2023-01-31T06:49:00.357Z,101729.84
2023-01-31T06:51:28.412Z,101728.38
2023-01-31T06:53:56.664Z,101735.00
2023-01-31T06:56:24.927Z,101739.50
2023-01-31T06:58:53.672Z,101735.75
2023-01-31T07:01:24.292Z,101736.53
2023-01-31T07:03:52.355Z,101733.41
2023-01-31T07:06:21.744Z,101732.91
2023-01-31T07:08:50.070Z,101729.34
2023-01-31T07:11:18.235Z,101739.84
2023-01-31T07:13:47.961Z,101747.78
2023-01-31T07:16:17.268Z,101761.81
2023-01-31T07:18:44.954Z,101756.00
2023-01-31T07:21:12.519Z,101756.69
2023-01-31T07:23:40.382Z,101750.88
2023-01-31T07:26:08.925Z,101751.47
2023-01-31T07:28:40.483Z,101750.25
2023-01-31T07:31:12.900Z,101747.75
2023-01-31T07:33:41.672Z,101738.75
2023-01-31T07:36:12.613Z,101748.41
2023-01-31T07:38:40.179Z,101752.34
2023-01-31T07:41:08.684Z,101757.19
2023-01-31T07:43:36.761Z,101756.19
2023-01-31T07:46:09.557Z,101759.38
2023-01-31T07:48:38.077Z,101758.59
2023-01-31T07:51:06.091Z,101754.16
2023-01-31T07:53:35.260Z,101754.41
2023-01-31T07:56:10.595Z,101743.75
2023-01-31T07:58:51.195Z,101752.66
2023-01-31T08:01:38.847Z,101754.31
2023-01-31T08:04:21.565Z,101751.75
2023-01-31T08:06:49.272Z,101756.69
2023-01-31T08:09:16.934Z,101758.22
2023-01-31T08:11:47.850Z,101764.31
2023-01-31T08:14:16.836Z,101757.56
2023-01-31T08:16:45.335Z,101764.81
2023-01-31T08:19:13.483Z,101777.25
2023-01-31T08:21:41.723Z,101777.22
2023-01-31T08:24:57.600Z,101774.66
2023-01-31T08:30:50.346Z,101776.25
2023-01-31T08:33:25.451Z,101773.91
2023-01-31T08:35:53.839Z,101776.44
2023-01-31T08:38:21.816Z,101782.84
2023-01-31T08:40:50.861Z,101773.09
2023-01-31T08:43:18.998Z,101781.44
2023-01-31T08:45:47.388Z,101779.19
2023-01-31T08:48:15.103Z,101777.69
2023-01-31T08:50:43.092Z,101779.94
2023-01-31T08:53:10.643Z,101777.56
2023-01-31T08:55:38.134Z,101783.78
2023-01-31T08:58:06.031Z,101781.03
2023-01-31T09:00:34.087Z,101784.03
2023-01-31T09:03:03.278Z,101782.72
2023-01-31T09:05:30.473Z,101782.41
2023-01-31T09:07:58.040Z,101789.25
2023-01-31T09:10:28.861Z,101784.28
2023-01-31T09:12:56.925Z,101788.03
2023-01-31T09:15:24.811Z,101784.38
2023-01-31T09:17:53.063Z,101781.59
2023-01-31T09:20:20.926Z,101782.66
2023-01-31T09:22:48.562Z,101783.34
2023-01-31T09:25:16.127Z,101788.19
2023-01-31T09:27:44.157Z,101787.13
2023-01-31T09:30:15.971Z,101793.84
2023-01-31T09:32:44.543Z,101796.66
2023-01-31T09:35:32.096Z,101793.97
2023-01-31T09:37:59.707Z,101787.69
2023-01-31T09:40:27.605Z,101792.41
2023-01-31T09:42:55.237Z,101790.66
2023-01-31T09:45:33.610Z,101800.63
2023-01-31T09:48:01.734Z,101782.16
2023-01-31T09:50:43.965Z,101791.78
2023-01-31T09:53:13.545Z,101795.81
2023-01-31T09:55:42.509Z,101792.91
2023-01-31T09:58:33.888Z,101799.06
2023-01-31T10:01:12.609Z,101795.25
2023-01-31T10:03:58.218Z,101791.59
2023-01-31T10:06:26.927Z,101788.72
2023-01-31T10:08:59.605Z,101795.53
2023-01-31T10:11:40.277Z,101795.00
2023-01-31T10:14:07.196Z,101791.97
2023-01-31T10:16:37.601Z,101795.19
2023-01-31T10:19:07.985Z,101799.78
2023-01-31T10:21:49.961Z,101802.34
2023-01-31T10:24:24.032Z,101799.41
2023-01-31T10:26:53.841Z,101797.09
2023-01-31T10:29:34.366Z,101794.41
2023-01-31T10:32:45.412Z,101794.09
2023-01-31T10:35:16.478Z,101794.66
2023-01-31T10:38:21.822Z,101794.41
2023-01-31T10:40:51.620Z,101788.19
2023-01-31T10:43:46.411Z,101777.69
2023-01-31T10:46:14.133Z,101781.69
2023-01-31T10:48:43.957Z,101786.81
2023-01-31T10:51:38.495Z,101772.25
2023-01-31T10:54:32.129Z,101774.09
2023-01-31T10:57:00.553Z,101769.06
2023-01-31T10:59:34.318Z,101767.19
2023-01-31T11:02:03.169Z,101775.56
2023-01-31T11:04:44.034Z,101763.97
2023-01-31T11:07:11.799Z,101752.06
2023-01-31T11:10:20.781Z,101761.69
2023-01-31T11:13:18.414Z,101755.06
2023-01-31T11:15:48.266Z,101750.59
2023-01-31T11:18:17.826Z,101744.78
2023-01-31T11:20:46.238Z,101743.44
2023-01-31T11:23:17.833Z,101747.38
2023-01-31T11:25:49.199Z,101742.13
2023-01-31T11:28:39.604Z,101739.75
2023-01-31T11:31:27.708Z,101742.56
2023-01-31T11:34:04.734Z,101753.38
2023-01-31T11:36:42.213Z,101746.06
2023-01-31T11:39:32.954Z,101743.88
2023-01-31T11:42:26.802Z,101740.66
2023-01-31T11:44:59.403Z,101743.34
2023-01-31T11:47:51.919Z,101727.25
2023-01-31T11:50:23.688Z,101721.69
2023-01-31T11:53:13.695Z,101722.94
2023-01-31T11:55:41.410Z,101720.41
2023-01-31T11:58:21.806Z,101718.09
2023-01-31T12:01:02.519Z,101711.25
2023-01-31T12:04:01.351Z,101716.75
2023-01-31T12:06:43.562Z,101707.91
2023-01-31T12:09:22.086Z,101707.16
2023-01-31T12:12:00.382Z,101705.84
2023-01-31T12:14:38.259Z,101709.91
2023-01-31T12:17:05.403Z,101708.69
2023-01-31T12:20:27.103Z,101708.34
2023-01-31T12:23:42.653Z,101705.00
2023-01-31T12:26:32.728Z,101700.28
2023-01-31T12:29:33.345Z,101699.84
2023-01-31T12:32:03.125Z,101691.28
2023-01-31T12:35:00.139Z,101678.59
2023-01-31T12:38:04.161Z,101674.97
2023-01-31T12:40:44.353Z,101664.34
2023-01-31T12:46:21.792Z,101651.59
2023-01-31T12:49:14.631Z,101648.31
2023-01-31T12:52:10.559Z,101645.03
2023-01-31T12:54:58.547Z,101638.19
2023-01-31T12:58:04.668Z,101637.47
2023-01-31T13:00:34.359Z,101633.72
2023-01-31T13:03:14.751Z,101637.56
2023-01-31T13:06:08.904Z,101630.09
2023-01-31T13:08:35.945Z,101627.78
2023-01-31T13:11:08.239Z,101625.72
2023-01-31T13:13:51.347Z,101610.97
2023-01-31T13:16:35.367Z,101613.59
2023-01-31T13:19:05.908Z,101603.63
2023-01-31T13:21:35.807Z,101611.88
2023-01-31T13:24:09.681Z,101608.06
2023-01-31T13:26:38.846Z,101606.38
2023-01-31T13:29:20.236Z,101598.28
2023-01-31T13:31:49.465Z,101593.09
2023-01-31T13:34:19.621Z,101596.09
2023-01-31T13:36:52.568Z,101590.06
2023-01-31T13:39:24.790Z,101586.97
2023-01-31T13:41:58.959Z,101588.47
2023-01-31T13:44:27.285Z,101586.00
2023-01-31T13:46:58.844Z,101591.84
2023-01-31T13:49:34.241Z,101586.31
2023-01-31T13:52:05.691Z,101590.47
2023-01-31T13:54:36.693Z,101582.28
2023-01-31T13:57:03.575Z,101577.38
2023-01-31T13:59:33.134Z,101572.28
2023-01-31T14:02:05.352Z,101581.59
2023-01-31T14:04:37.821Z,101575.53
2023-01-31T14:07:06.768Z,101570.00
2023-01-31T14:09:59.955Z,101583.41
2023-01-31T14:12:32.866Z,101580.19
2023-01-31T14:15:29.670Z,101581.28
2023-01-31T14:17:58.137Z,101584.97
2023-01-31T14:20:28.619Z,101575.88
2023-01-31T14:23:31.151Z,101578.47
2023-01-31T14:25:57.844Z,101577.47
2023-01-31T14:28:26.734Z,101581.91
2023-01-31T14:30:54.740Z,101575.22
2023-01-31T14:33:25.904Z,101577.06
2023-01-31T14:36:15.836Z,101577.09
2023-01-31T14:38:46.031Z,101579.91
2023-01-31T14:44:27.113Z,101560.25
2023-01-31T14:47:07.675Z,101554.28
2023-01-31T14:50:25.961Z,101554.28
2023-01-31T14:53:03.345Z,101554.91
2023-01-31T14:56:11.744Z,101550.75
2023-01-31T14:58:45.033Z,101558.88
2023-01-31T15:01:13.268Z,101562.16
2023-01-31T15:03:50.307Z,101562.00
2023-01-31T15:06:28.430Z,101559.53
2023-01-31T15:09:14.405Z,101563.28
2023-01-31T15:19:59.241Z,101565.31
2023-01-31T15:27:57.966Z,101565.81
2023-01-31T15:30:26.864Z,101571.56
2023-01-31T15:33:09.373Z,101572.00
2023-01-31T15:35:54.658Z,101566.97
2023-01-31T15:38:42.340Z,101564.13
2023-01-31T15:41:22.997Z,101573.72
2023-01-31T15:44:08.022Z,101578.91
2023-01-31T15:46:36.388Z,101575.84
2023-01-31T16:44:38.539Z,101623.41
2023-01-31T17:32:55.215Z,101602.41
2023-01-31T18:00:13.624Z,101604.16
2023-01-31T18:05:39.412Z,101592.81
2023-01-31T18:08:07.981Z,101609.03
2023-01-31T18:10:39.038Z,101605.66
2023-01-31T18:13:06.914Z,101606.84
2023-01-31T18:15:36.502Z,101611.06
2023-01-31T18:18:08.631Z,101612.91
2023-01-31T18:20:38.862Z,101609.19
2023-01-31T18:23:08.185Z,101590.84
2023-01-31T18:25:36.636Z,101600.88
2023-01-31T18:30:40.666Z,101592.50
2023-01-31T18:33:09.798Z,101604.03
2023-01-31T18:35:38.967Z,101607.41
2023-01-31T18:38:06.954Z,101604.88
2023-01-31T18:40:39.283Z,101606.69
2023-01-31T18:43:07.729Z,101596.66
2023-01-31T18:45:35.570Z,101608.84
2023-01-31T18:56:05.679Z,101584.91
2023-01-31T18:58:34.775Z,101589.09
2023-01-31T19:01:31.145Z,101585.06
2023-01-31T19:03:58.839Z,101598.84
2023-01-31T19:06:51.539Z,101607.78
2023-01-31T19:09:19.609Z,101606.81
2023-01-31T19:11:47.389Z,101603.56
2023-01-31T19:14:17.655Z,101594.81
2023-01-31T19:16:45.529Z,101600.88
2023-01-31T19:19:13.323Z,101588.44
2023-01-31T19:21:41.044Z,101593.72
2023-01-31T19:26:58.478Z,101589.59
2023-01-31T19:29:35.732Z,101601.50
2023-01-31T19:32:04.550Z,101602.09
2023-01-31T19:34:36.509Z,101595.78
2023-01-31T19:37:06.227Z,101595.50
2023-01-31T19:39:46.290Z,101583.31
2023-01-31T19:42:14.280Z,101590.97
2023-01-31T19:44:41.925Z,101599.84
2023-01-31T19:47:11.774Z,101611.22
2023-01-31T19:49:39.781Z,101601.78
2023-01-31T19:52:07.882Z,101608.34
2023-01-31T19:54:35.736Z,101605.91
2023-01-31T19:57:03.480Z,101603.16
2023-01-31T19:59:37.118Z,101609.31
2023-01-31T20:02:05.800Z,101601.94
2023-01-31T20:04:38.161Z,101598.19
2023-01-31T20:07:06.204Z,101594.66
2023-01-31T20:09:38.442Z,101605.66
2023-01-31T20:12:07.536Z,101602.41
2023-01-31T20:14:35.875Z,101604.88
2023-01-31T20:17:07.246Z,101615.28
2023-01-31T20:19:38.603Z,101617.22
2023-01-31T20:22:07.059Z,101613.91
2023-01-31T20:24:35.116Z,101615.66
2023-01-31T20:27:04.484Z,101631.66
2023-01-31T20:29:32.880Z,101640.00
2023-01-31T20:32:04.952Z,101634.47
2023-01-31T20:34:34.846Z,101642.47
2023-01-31T20:47:44.499Z,101647.78
2023-01-31T20:50:13.519Z,101645.66
2023-01-31T20:52:42.635Z,101646.78
2023-01-31T20:55:12.468Z,101645.31
2023-01-31T21:11:11.657Z,101657.44
2023-01-31T21:13:40.072Z,101663.97
2023-01-31T21:16:18.108Z,101667.31
2023-01-31T21:18:45.806Z,101659.78
2023-01-31T21:21:17.139Z,101651.69
2023-01-31T21:23:50.011Z,101651.28
